createdAt,value
2018-06-01T00:01:02.567Z,46.80
2018-06-01T00:03:30.128Z,47.45
2018-06-01T00:05:57.651Z,47.27
2018-06-01T00:08:25.195Z,47.41
2018-06-01T00:10:52.735Z,48.16
2018-06-01T00:13:20.367Z,47.96
2018-06-01T00:15:47.930Z,47.71
2018-06-01T00:18:15.484Z,49.81
2018-06-01T00:20:43.012Z,48.35
2018-06-01T00:23:10.614Z,48.84
2018-06-01T00:25:38.150Z,49.65
2018-06-01T00:28:05.727Z,51.64
2018-06-01T00:30:33.287Z,49.60
2018-06-01T00:33:00.815Z,50.03
2018-06-01T00:35:28.407Z,50.89
2018-06-01T00:37:55.937Z,51.01
2018-06-01T00:40:23.528Z,50.06
2018-06-01T00:42:51.043Z,49.82
2018-06-01T00:45:18.613Z,49.82
2018-06-01T00:47:46.213Z,50.26
2018-06-01T00:50:13.870Z,50.93
2018-06-01T00:52:41.428Z,51.51
2018-06-01T00:55:20.760Z,51.11
2018-06-01T00:57:48.311Z,50.89
2018-06-01T01:00:15.866Z,52.01
2018-06-01T01:02:43.445Z,51.47
2018-06-01T01:05:11.005Z,51.35
2018-06-01T01:07:38.532Z,52.60
2018-06-01T01:10:06.048Z,52.63
2018-06-01T01:12:33.583Z,51.95
2018-06-01T01:15:01.109Z,52.11
2018-06-01T01:17:28.697Z,53.41
2018-06-01T01:19:56.227Z,52.74
2018-06-01T01:22:23.788Z,53.23
2018-06-01T01:24:51.367Z,52.72
2018-06-01T01:27:18.927Z,53.31
2018-06-01T01:29:46.460Z,52.91
2018-06-01T01:32:14.058Z,53.91
2018-06-01T01:34:41.609Z,55.14
2018-06-01T01:37:09.119Z,55.38
2018-06-01T01:39:36.677Z,54.57
2018-06-01T01:42:04.232Z,55.80
2018-06-01T01:44:31.755Z,56.08
2018-06-01T01:46:59.282Z,54.30
2018-06-01T01:49:26.852Z,56.78
2018-06-01T01:51:54.373Z,55.50
2018-06-01T01:54:21.904Z,56.82
2018-06-01T01:56:49.441Z,56.50
2018-06-01T01:59:16.986Z,57.59
2018-06-01T02:01:44.571Z,58.29
2018-06-01T02:04:12.136Z,55.78
2018-06-01T02:06:39.665Z,56.71
2018-06-01T02:09:07.189Z,57.07
2018-06-01T02:11:34.822Z,57.11
2018-06-01T02:14:02.391Z,59.26
2018-06-01T02:16:29.922Z,57.05
2018-06-01T02:18:57.499Z,58.07
2018-06-01T02:21:25.056Z,56.37
2018-06-01T02:23:52.584Z,57.63
2018-06-01T02:26:20.112Z,57.86
2018-06-01T02:28:47.737Z,58.67
2018-06-01T02:31:15.264Z,58.37
2018-06-01T02:33:42.784Z,57.05
2018-06-01T02:36:10.319Z,57.91
2018-06-01T02:38:37.862Z,57.60
2018-06-01T02:41:05.401Z,56.75
2018-06-01T02:43:32.925Z,57.19
2018-06-01T02:46:00.452Z,58.64
2018-06-01T02:48:27.975Z,57.62
2018-06-01T02:50:55.573Z,57.19
2018-06-01T02:53:23.101Z,57.25
2018-06-01T02:55:50.620Z,59.25
2018-06-01T02:58:18.182Z,59.50
2018-06-01T03:00:45.708Z,58.61
2018-06-01T03:03:13.232Z,59.48
2018-06-01T03:05:40.832Z,60.16
2018-06-01T03:08:08.352Z,60.50
2018-06-01T03:10:35.881Z,60.01
2018-06-01T03:13:03.408Z,59.53
2018-06-01T03:15:30.932Z,59.18
2018-06-01T03:17:58.526Z,57.68
2018-06-01T03:20:26.052Z,58.16
2018-06-01T03:22:53.581Z,58.92
2018-06-01T03:25:21.191Z,59.61
2018-06-01T03:27:48.724Z,60.09
2018-06-01T03:30:16.295Z,60.11
2018-06-01T03:32:43.884Z,60.29
2018-06-01T03:35:11.412Z,58.82
2018-06-01T03:37:38.995Z,59.16
2018-06-01T03:40:06.531Z,59.31
2018-06-01T03:42:34.125Z,58.89
2018-06-01T03:45:01.685Z,58.66
2018-06-01T03:47:29.212Z,58.97
2018-06-01T03:49:56.804Z,59.82
2018-06-01T03:52:24.368Z,58.34
2018-06-01T03:54:51.911Z,58.86
2018-06-01T03:57:19.452Z,58.41
2018-06-01T03:59:46.968Z,58.38
2018-06-01T04:02:14.606Z,58.99
2018-06-01T04:04:42.136Z,59.06
2018-06-01T04:07:09.726Z,59.66
2018-06-01T04:09:37.291Z,59.20
2018-06-01T04:12:04.947Z,59.53
2018-06-01T04:14:32.642Z,59.20
2018-06-01T04:17:01.193Z,59.56
2018-06-01T04:19:28.724Z,58.26
2018-06-01T04:21:56.244Z,58.67
2018-06-01T04:24:23.865Z,58.66
2018-06-01T04:26:51.417Z,59.27
2018-06-01T04:29:18.949Z,58.91
2018-06-01T04:31:46.479Z,59.19
2018-06-01T04:34:14.011Z,58.32
2018-06-01T04:36:41.536Z,59.29
2018-06-01T04:39:09.084Z,58.98
2018-06-01T04:41:36.685Z,58.52
2018-06-01T04:44:04.251Z,58.80
2018-06-01T04:46:31.805Z,59.35
2018-06-01T04:48:59.337Z,58.76
2018-06-01T04:51:26.864Z,58.83
2018-06-01T04:53:54.396Z,57.89
2018-06-01T04:56:21.924Z,57.72
2018-06-01T04:58:49.511Z,57.83
2018-06-01T05:01:17.060Z,57.73
2018-06-01T05:03:44.617Z,58.55
2018-06-01T05:06:12.144Z,57.47
2018-06-01T05:08:39.712Z,57.88
2018-06-01T05:11:07.231Z,58.23
2018-06-01T05:13:34.868Z,58.07
2018-06-01T05:16:02.429Z,57.74
2018-06-01T05:18:29.955Z,57.74
2018-06-01T05:20:57.476Z,57.38
2018-06-01T05:23:25.107Z,57.12
2018-06-01T05:25:52.671Z,57.13
2018-06-01T05:28:20.228Z,57.13
2018-06-01T05:30:47.752Z,56.90
2018-06-01T05:33:15.288Z,56.82
2018-06-01T05:35:42.828Z,57.17
2018-06-01T05:38:10.466Z,56.39
2018-06-01T05:40:38.000Z,56.38
2018-06-01T05:43:05.588Z,55.99
2018-06-01T05:45:33.147Z,56.10
2018-06-01T05:48:00.707Z,56.09
2018-06-01T05:50:28.236Z,56.07
2018-06-01T05:52:55.765Z,55.45
2018-06-01T05:55:23.386Z,54.87
2018-06-01T05:57:50.941Z,55.27
2018-06-01T06:00:18.501Z,55.34
2018-06-01T06:02:46.070Z,54.71
2018-06-01T06:05:13.627Z,53.87
2018-06-01T06:07:41.188Z,54.43
2018-06-01T06:10:08.749Z,52.92
2018-06-01T06:12:36.411Z,53.63
2018-06-01T06:15:03.937Z,53.63
2018-06-01T06:17:31.534Z,53.46
2018-06-01T06:19:59.204Z,53.41
2018-06-01T06:22:26.870Z,53.00
2018-06-01T06:24:54.415Z,53.60
2018-06-01T06:27:21.939Z,53.38
2018-06-01T06:29:49.533Z,52.97
2018-06-01T06:32:17.065Z,51.44
2018-06-01T06:34:44.658Z,51.97
2018-06-01T06:37:12.314Z,50.40
2018-06-01T06:39:39.877Z,50.15
2018-06-01T06:42:07.407Z,51.23
2018-06-01T06:44:34.992Z,49.48
2018-06-01T06:47:02.525Z,50.15
2018-06-01T06:49:30.116Z,49.37
2018-06-01T06:51:57.644Z,49.75
2018-06-01T06:54:25.168Z,49.08
2018-06-01T06:56:52.704Z,49.04
2018-06-01T06:59:20.236Z,49.22
2018-06-01T07:01:47.783Z,48.37
2018-06-01T07:04:15.368Z,47.72
2018-06-01T07:06:42.934Z,46.73
2018-06-01T07:09:10.459Z,49.21
2018-06-01T07:11:38.048Z,45.74
2018-06-01T07:14:05.577Z,46.38
2018-06-01T07:16:33.113Z,46.18
2018-06-01T07:19:00.738Z,45.75
2018-06-01T07:21:28.268Z,46.05
2018-06-01T07:23:55.852Z,43.59
2018-06-01T07:26:23.411Z,41.96
2018-06-01T07:28:50.956Z,43.93
2018-06-01T07:31:18.479Z,42.87
2018-06-01T07:33:46.024Z,44.51
2018-06-01T07:36:13.553Z,44.13
2018-06-01T07:38:41.089Z,45.01
2018-06-01T07:41:08.623Z,45.06
2018-06-01T07:43:36.227Z,44.64
2018-06-01T07:46:03.758Z,44.81
2018-06-01T07:48:31.349Z,45.29
2018-06-01T07:50:58.907Z,43.94
2018-06-01T07:53:26.468Z,43.74
2018-06-01T07:55:54.127Z,44.36
2018-06-01T07:58:21.656Z,44.76
2018-06-01T08:00:49.256Z,44.19
2018-06-01T08:03:16.779Z,44.22
2018-06-01T08:05:44.368Z,44.11
2018-06-01T08:08:11.902Z,42.61
2018-06-01T08:10:39.430Z,43.27
2018-06-01T08:13:07.049Z,42.44
2018-06-01T08:15:34.610Z,41.86
2018-06-01T08:18:02.141Z,42.14
2018-06-01T08:20:29.725Z,41.62
2018-06-01T08:22:57.287Z,39.72
2018-06-01T08:25:24.849Z,42.16
2018-06-01T08:27:52.377Z,40.67
2018-06-01T08:30:19.904Z,40.24
2018-06-01T08:32:47.493Z,40.37
2018-06-01T08:35:15.089Z,39.54
2018-06-01T08:37:42.636Z,39.88
2018-06-01T08:40:10.160Z,40.18
2018-06-01T08:42:37.703Z,39.05
2018-06-01T08:45:05.332Z,38.82
2018-06-01T08:47:32.856Z,36.69
2018-06-01T08:50:00.375Z,36.64
2018-06-01T08:52:28.012Z,35.54
2018-06-01T08:54:55.567Z,35.86
2018-06-01T08:57:23.101Z,34.84
2018-06-01T08:59:50.625Z,34.95
2018-06-01T09:02:18.248Z,32.73
2018-06-01T09:04:45.779Z,32.33
2018-06-01T09:07:13.368Z,31.76
2018-06-01T09:09:40.893Z,30.89
2018-06-01T09:12:08.489Z,28.50
2018-06-01T09:14:36.045Z,27.86
2018-06-01T09:17:03.609Z,30.97
2018-06-01T09:19:31.180Z,32.53
2018-06-01T09:21:58.727Z,30.04
2018-06-01T09:24:26.252Z,28.69
2018-06-01T09:26:53.773Z,30.28
2018-06-01T09:29:21.303Z,29.95
2018-06-01T09:31:48.847Z,29.80
2018-06-01T09:34:16.419Z,29.22
2018-06-01T09:36:43.951Z,31.13
2018-06-01T09:39:11.488Z,31.24
2018-06-01T09:41:39.042Z,31.52
2018-06-01T09:44:06.575Z,32.27
2018-06-01T09:46:34.225Z,32.43
2018-06-01T09:49:01.767Z,31.99
2018-06-01T09:51:29.301Z,32.45
2018-06-01T09:53:56.903Z,33.07
2018-06-01T09:56:24.461Z,32.08
2018-06-01T09:58:51.982Z,32.41
2018-06-01T10:01:25.158Z,32.35
2018-06-01T10:03:52.769Z,33.24
2018-06-01T10:06:20.288Z,33.97
2018-06-01T10:08:47.838Z,33.36
2018-06-01T10:11:15.452Z,32.02
2018-06-01T10:13:42.975Z,33.37
2018-06-01T10:16:10.492Z,33.68
2018-06-01T10:18:38.031Z,32.39
2018-06-01T10:21:05.594Z,32.85
2018-06-01T10:23:33.167Z,32.34
2018-06-01T10:26:00.693Z,32.23
2018-06-01T10:28:28.270Z,32.71
2018-06-01T10:30:55.829Z,31.41
2018-06-01T10:33:23.365Z,31.56
2018-06-01T10:35:50.893Z,31.60
2018-06-01T10:38:18.516Z,30.84
2018-06-01T10:40:46.077Z,30.34
2018-06-01T10:43:13.604Z,30.27
2018-06-01T10:45:41.192Z,29.88
2018-06-01T10:48:08.730Z,30.17
2018-06-01T10:50:36.261Z,30.16
2018-06-01T10:53:03.868Z,30.46
2018-06-01T10:55:31.428Z,30.64
2018-06-01T10:57:58.966Z,31.81
2018-06-01T11:00:26.512Z,32.74
2018-06-01T11:02:54.064Z,34.58
2018-06-01T11:05:21.598Z,35.71
2018-06-01T11:07:49.125Z,36.19
2018-06-01T11:10:16.690Z,36.11
2018-06-01T11:12:44.223Z,37.81
2018-06-01T11:15:11.803Z,38.80
2018-06-01T11:17:39.340Z,39.60
2018-06-01T11:20:06.927Z,39.51
2018-06-01T11:22:34.487Z,38.37
2018-06-01T11:25:02.018Z,38.13
2018-06-01T11:27:29.547Z,38.26
2018-06-01T11:29:57.170Z,38.92
2018-06-01T11:32:24.755Z,38.45
2018-06-01T11:34:52.267Z,39.03
2018-06-01T11:37:19.857Z,38.73
2018-06-01T11:39:47.375Z,38.91
2018-06-01T11:42:14.897Z,39.71
2018-06-01T11:44:42.681Z,38.83
2018-06-01T11:47:10.312Z,38.37
2018-06-01T11:49:38.040Z,39.31
2018-06-01T11:52:05.710Z,40.11
2018-06-01T11:54:33.531Z,40.01
2018-06-01T11:57:01.372Z,40.42
2018-06-01T11:59:29.420Z,39.39
2018-06-01T12:01:56.991Z,39.75
2018-06-01T12:04:24.503Z,40.08
2018-06-01T12:06:52.023Z,39.66
2018-06-01T12:09:19.556Z,40.55
2018-06-01T12:11:47.070Z,40.34
2018-06-01T12:14:14.616Z,41.48
2018-06-01T12:16:42.140Z,40.91
2018-06-01T12:19:09.672Z,40.83
2018-06-01T12:21:37.188Z,40.61
2018-06-01T12:24:04.710Z,41.24
2018-06-01T12:26:32.242Z,41.17
2018-06-01T12:28:59.845Z,41.41
2018-06-01T12:31:27.496Z,40.48
2018-06-01T12:33:55.053Z,40.22
2018-06-01T12:36:22.590Z,41.45
2018-06-01T12:38:50.118Z,40.71
2018-06-01T12:41:17.734Z,40.35
2018-06-01T12:43:45.260Z,40.26
2018-06-01T12:46:12.931Z,39.61
2018-06-01T12:48:40.514Z,39.51
2018-06-01T12:51:08.045Z,40.31
2018-06-01T12:53:35.580Z,40.12
2018-06-01T12:56:03.194Z,39.10
2018-06-01T12:58:30.726Z,39.48
2018-06-01T13:00:58.256Z,39.72
2018-06-01T13:03:25.849Z,39.92
2018-06-01T13:05:53.368Z,38.54
2018-06-01T13:08:20.904Z,39.24
2018-06-01T13:10:48.432Z,38.97
2018-06-01T13:13:15.952Z,38.20
2018-06-01T13:15:43.781Z,37.78
2018-06-01T13:18:11.337Z,38.40
2018-06-01T13:20:38.983Z,38.44
2018-06-01T13:23:06.462Z,38.85
2018-06-01T13:25:33.985Z,39.12
2018-06-01T13:28:01.504Z,38.64
2018-06-01T13:30:29.034Z,38.54
2018-06-01T13:32:56.593Z,38.79
2018-06-01T13:35:24.231Z,38.50
2018-06-01T13:37:51.823Z,38.61
2018-06-01T13:40:19.346Z,37.71
2018-06-01T13:42:46.981Z,38.27
2018-06-01T13:45:14.596Z,37.24
2018-06-01T13:47:42.162Z,37.57
2018-06-01T13:50:09.799Z,37.71
2018-06-01T13:52:37.340Z,37.56
2018-06-01T13:55:05.072Z,37.99
2018-06-01T13:57:32.633Z,38.14
2018-06-01T14:00:00.268Z,38.07
2018-06-01T14:02:27.937Z,37.99
2018-06-01T14:04:55.458Z,38.16
2018-06-01T14:07:23.044Z,38.28
2018-06-01T14:09:50.605Z,38.13
2018-06-01T14:12:18.128Z,38.35
2018-06-01T14:14:45.721Z,38.44
2018-06-01T14:17:13.250Z,37.98
2018-06-01T14:19:40.843Z,37.85
2018-06-01T14:22:08.360Z,37.71
2018-06-01T14:24:35.929Z,37.91
2018-06-01T14:27:03.453Z,37.98
2018-06-01T14:29:30.987Z,37.84
2018-06-01T14:31:58.541Z,37.67
2018-06-01T14:34:26.070Z,37.87
2018-06-01T14:36:53.600Z,38.02
2018-06-01T14:39:21.121Z,37.79
2018-06-01T14:41:48.647Z,38.08
2018-06-01T14:44:16.238Z,38.00
2018-06-01T14:46:43.768Z,38.01
2018-06-01T14:49:11.283Z,37.85
2018-06-01T14:51:38.815Z,38.12
2018-06-01T14:54:06.345Z,38.13
2018-06-01T14:56:33.935Z,38.21
2018-06-01T14:59:01.465Z,38.05
2018-06-01T15:01:28.996Z,38.03
2018-06-01T15:03:56.548Z,38.58
2018-06-01T15:06:24.116Z,38.12
2018-06-01T15:08:51.681Z,38.04
2018-06-01T15:11:19.310Z,38.21
2018-06-01T15:13:46.882Z,38.51
2018-06-01T15:16:14.517Z,38.42
2018-06-01T15:18:42.049Z,38.86
2018-06-01T15:21:09.634Z,38.96
2018-06-01T15:23:37.195Z,39.47
2018-06-01T15:26:04.724Z,39.08
2018-06-01T15:28:32.285Z,39.48
2018-06-01T15:30:59.814Z,39.33
2018-06-01T15:33:27.348Z,39.18
2018-06-01T15:35:54.875Z,38.58
2018-06-01T15:38:22.392Z,38.89
2018-06-01T15:40:49.975Z,38.51
2018-06-01T15:43:17.468Z,38.62
2018-06-01T15:45:45.029Z,38.94
2018-06-01T15:48:12.558Z,39.15
2018-06-01T15:50:40.149Z,38.79
2018-06-01T15:53:07.681Z,39.00
2018-06-01T15:55:35.211Z,38.97
2018-06-01T15:58:02.830Z,38.95
2018-06-01T16:00:30.362Z,39.70
2018-06-01T16:02:57.947Z,40.28
2018-06-01T16:05:25.480Z,40.93
2018-06-01T16:07:53.068Z,41.28
2018-06-01T16:10:20.716Z,40.83
2018-06-01T16:12:48.259Z,40.30
2018-06-01T16:15:15.848Z,40.24
2018-06-01T16:17:43.371Z,40.56
2018-06-01T16:20:10.981Z,40.13
2018-06-01T16:22:38.498Z,40.01
2018-06-01T16:25:06.061Z,40.16
2018-06-01T16:27:34.303Z,41.80
2018-06-01T16:30:01.824Z,44.54
2018-06-01T16:32:29.382Z,45.58
2018-06-01T16:34:56.911Z,45.30
2018-06-01T16:37:24.506Z,44.61
2018-06-01T16:39:52.124Z,44.45
2018-06-01T16:42:19.618Z,44.07
2018-06-01T16:44:47.182Z,45.28
2018-06-01T16:47:14.714Z,47.42
2018-06-01T16:49:42.302Z,49.07
2018-06-01T16:52:09.836Z,50.72
2018-06-01T16:54:37.645Z,49.97
2018-06-01T16:57:05.188Z,52.02
2018-06-01T16:59:32.845Z,54.52
2018-06-01T17:02:00.413Z,56.06
2018-06-01T17:04:27.968Z,55.52
2018-06-01T17:06:55.501Z,57.13
2018-06-01T17:09:23.088Z,57.63
2018-06-01T17:11:50.768Z,56.50
2018-06-01T17:14:18.411Z,56.93
2018-06-01T17:16:45.975Z,59.99
2018-06-01T17:19:13.687Z,61.64
2018-06-01T17:21:41.224Z,66.09
2018-06-01T17:24:08.858Z,71.89
2018-06-01T17:26:36.392Z,78.41
2018-06-01T17:29:03.981Z,83.09
2018-06-01T17:31:31.510Z,84.94
2018-06-01T17:33:59.053Z,85.53
2018-06-01T17:36:26.597Z,85.03
2018-06-01T17:38:54.222Z,86.02
2018-06-01T17:41:21.782Z,100.00
2018-06-01T17:43:49.338Z,100.00
2018-06-01T17:46:16.897Z,100.00
2018-06-01T17:48:44.453Z,100.00
2018-06-01T17:51:11.988Z,100.00
2018-06-01T17:53:39.545Z,100.00
2018-06-01T17:56:07.106Z,100.00
2018-06-01T17:58:34.653Z,100.00
2018-06-01T18:01:02.205Z,100.00
2018-06-01T18:03:29.756Z,100.00
2018-06-01T18:05:57.343Z,100.00
2018-06-01T18:08:24.875Z,100.00
2018-06-01T18:10:52.433Z,100.00
2018-06-01T18:13:19.984Z,100.00
2018-06-01T18:15:47.520Z,100.00
2018-06-01T18:18:15.079Z,100.00
2018-06-01T18:20:42.637Z,100.00
2018-06-01T18:23:10.201Z,100.00
2018-06-01T18:25:37.753Z,100.00
2018-06-01T18:28:06.047Z,100.00
2018-06-01T18:30:33.589Z,100.00
2018-06-01T18:33:01.163Z,100.00
2018-06-01T18:35:28.711Z,100.00
2018-06-01T18:37:56.376Z,100.00
2018-06-01T18:40:23.936Z,100.00
2018-06-01T18:42:51.499Z,100.00
2018-06-01T18:45:19.058Z,100.00
2018-06-01T18:47:46.612Z,100.00
2018-06-01T18:50:14.168Z,100.00
2018-06-01T18:52:41.865Z,100.00
2018-06-01T18:55:09.411Z,100.00
2018-06-01T18:57:36.955Z,84.36
2018-06-01T19:00:04.553Z,100.00
2018-06-01T19:02:32.181Z,100.00
2018-06-01T19:04:59.723Z,85.82
2018-06-01T19:07:27.267Z,86.32
2018-06-01T19:09:55.057Z,85.90
2018-06-01T19:12:22.589Z,86.45
2018-06-01T19:14:50.124Z,86.06
2018-06-01T19:17:17.668Z,85.52
2018-06-01T19:19:45.199Z,86.42
2018-06-01T19:22:12.760Z,86.05
2018-06-01T19:24:40.355Z,86.44
2018-06-01T19:27:07.879Z,86.86
2018-06-01T19:29:35.439Z,86.76
2018-06-01T19:32:02.987Z,87.11
2018-06-01T19:34:30.565Z,87.80
2018-06-01T19:36:58.104Z,88.42
2018-06-01T19:39:25.646Z,86.28
2018-06-01T19:41:53.172Z,88.49
2018-06-01T19:44:20.903Z,88.43
2018-06-01T19:46:48.465Z,86.97
2018-06-01T19:49:16.014Z,87.53
2018-06-01T19:51:43.553Z,87.56
2018-06-01T19:54:11.143Z,87.00
2018-06-01T19:56:38.699Z,86.06
2018-06-01T19:59:06.261Z,87.31
2018-06-01T20:01:33.805Z,85.67
2018-06-01T20:04:01.347Z,85.59
2018-06-01T20:06:28.945Z,86.94
2018-06-01T20:08:56.604Z,86.94
2018-06-01T20:11:24.133Z,85.75
2018-06-01T20:13:51.670Z,86.38
2018-06-01T20:16:19.212Z,86.12
2018-06-01T20:18:46.844Z,85.61
2018-06-01T20:21:14.516Z,85.47
2018-06-01T20:23:42.272Z,85.59
2018-06-01T20:26:09.797Z,85.19
2018-06-01T20:28:37.408Z,85.39
2018-06-01T20:31:05.068Z,85.40
2018-06-01T20:33:32.644Z,84.92
2018-06-01T20:36:00.176Z,84.94
2018-06-01T20:38:27.716Z,84.97
2018-06-01T20:40:55.292Z,84.52
2018-06-01T20:43:22.854Z,84.94
2018-06-01T20:45:50.643Z,85.40
2018-06-01T20:48:18.172Z,84.39
2018-06-01T20:50:45.751Z,84.85
2018-06-01T20:53:13.404Z,84.83
2018-06-01T20:55:40.943Z,85.47
2018-06-01T20:58:08.493Z,85.41
2018-06-01T21:00:36.024Z,87.09
2018-06-01T21:03:03.676Z,86.74
2018-06-01T21:05:31.302Z,87.47
2018-06-01T21:07:58.824Z,87.09
2018-06-01T21:10:26.409Z,85.73
2018-06-01T21:12:53.938Z,85.51
2018-06-01T21:15:21.549Z,86.83
2018-06-01T21:17:49.089Z,84.94
2018-06-01T21:20:16.629Z,86.63
2018-06-01T21:22:44.160Z,85.16
2018-06-01T21:25:11.716Z,85.35
2018-06-01T21:27:39.347Z,85.60
2018-06-01T21:30:06.901Z,87.77
2018-06-01T21:32:34.448Z,87.55
2018-06-01T21:35:01.978Z,87.89
2018-06-01T21:37:29.585Z,86.59
2018-06-01T21:39:57.128Z,86.97
2018-06-01T21:42:24.733Z,86.73
2018-06-01T21:44:52.364Z,88.73
2018-06-01T21:47:19.908Z,89.22
2018-06-01T21:49:47.468Z,89.25
2018-06-01T21:52:15.008Z,89.57
2018-06-01T21:54:42.607Z,89.79
2018-06-01T21:57:10.251Z,90.05
2018-06-01T21:59:37.785Z,90.39
2018-06-01T22:02:05.317Z,89.29
2018-06-01T22:04:32.844Z,87.83
2018-06-01T22:07:00.379Z,86.68
2018-06-01T22:09:27.917Z,87.68
2018-06-01T22:11:55.524Z,87.12
2018-06-01T22:14:23.600Z,86.59
2018-06-01T22:16:51.191Z,87.48
2018-06-01T22:19:18.756Z,86.53
2018-06-01T22:21:46.291Z,85.79
2018-06-01T22:24:13.831Z,85.98
2018-06-01T22:26:41.360Z,86.07
2018-06-01T22:29:08.897Z,85.64
2018-06-01T22:31:36.480Z,85.59
2018-06-01T22:34:04.075Z,85.77
2018-06-01T22:36:31.620Z,85.87
2018-06-01T22:38:59.197Z,85.92
2018-06-01T22:41:26.739Z,85.94
2018-06-01T22:43:54.271Z,85.86
2018-06-01T22:46:21.807Z,86.18
2018-06-01T22:48:49.380Z,86.97
2018-06-01T22:51:16.921Z,86.59
2018-06-01T22:53:44.452Z,85.81
2018-06-01T22:56:11.996Z,86.21
2018-06-01T22:58:39.522Z,85.61
2018-06-01T23:01:07.099Z,85.43
2018-06-01T23:03:34.694Z,85.25
2018-06-01T23:06:02.219Z,86.67
2018-06-01T23:08:29.818Z,85.59
2018-06-01T23:10:57.340Z,84.96
2018-06-01T23:13:24.865Z,85.09
2018-06-01T23:15:52.391Z,86.07
2018-06-01T23:18:19.916Z,87.32
2018-06-01T23:20:47.452Z,86.46
2018-06-01T23:23:15.029Z,85.66
2018-06-01T23:25:42.560Z,85.00
2018-06-01T23:28:10.093Z,85.44
2018-06-01T23:30:37.615Z,86.14
2018-06-01T23:33:05.208Z,85.38
2018-06-01T23:35:32.741Z,84.72
2018-06-01T23:38:00.275Z,85.18
2018-06-01T23:40:27.889Z,84.99
2018-06-01T23:42:55.447Z,84.91
2018-06-01T23:45:22.975Z,84.42
2018-06-01T23:47:50.569Z,85.37
2018-06-01T23:50:18.131Z,85.08
2018-06-01T23:52:45.664Z,86.60
2018-06-01T23:55:13.249Z,86.49
2018-06-01T23:57:40.808Z,86.18
